CheckWX is a tool to help pilots better visualize weather data.  It is not intended as a substitute for an official pre-flight weather briefing.

02:10:00 UTC

LOWS METAR
Salzburg Airport
Salzburg, Austria
Current

50 mins ago

LOWS 240120Z AUTO 15007KT 9999 BKN140 15/04 Q1003
Observed
Apr-24 @ 01:20 UTC
Wind
  • 150° at 7 KTS
Visibility
10,000+ meters
Flight Rules
VFR
Cloud Levels
  • Broken at 14,000' AGL
Temperature
15°C / 59°F
Dewpoint
C / 39°F
Humidity
48%
Altimeter
29.62" Hg
Pressure
1002.92 hPa
Previous

1 hour ago

LOWS 240050Z AUTO 15007KT 110V190 9999 FEW120 BKN140 16/04 Q1003
Observed
Apr-24 @ 00:50 UTC
Wind
  • 150° at 7 KTS
Visibility
10,000+ meters
Flight Rules
VFR
Cloud Levels
  • Few at 12,000' AGL
  • Broken at 14,000' AGL
Temperature
16°C / 61°F
Dewpoint
C / 39°F
Humidity
45%
Altimeter
29.62" Hg
Pressure
1002.92 hPa
Previous

2 hours ago

LOWS 240020Z AUTO 16007KT 9999 FEW140 15/04 Q1003
Observed
Apr-24 @ 00:20 UTC
Wind
  • 160° at 7 KTS
Visibility
10,000+ meters
Flight Rules
VFR
Cloud Levels
  • Few at 14,000' AGL
Temperature
15°C / 59°F
Dewpoint
C / 39°F
Humidity
48%
Altimeter
29.62" Hg
Pressure
1002.92 hPa